Time;durP1;ratioP1;P1;durP2;ratioP2;P2;SDS_P1;SDS_P2;PMS_P1;PMS_P2;Temp;Humidity;BMP_temperature;BMP_pressure;BME280_temperature;BME280_humidity;BME280_pressure;Samples;Min_cycle;Max_cycle;Signal;HPM_P1;HPM_P2
2022/06/11 00:01:45;;;;;;;2.90;0.80;;;23.00;97.60;;;;;;5011345;28;20572;-73
2022/06/11 00:04:20;;;;;;;1.60;1.10;;;23.00;97.50;;;;;;4994127;28;20998;-73
2022/06/11 00:06:50;;;;;;;2.03;0.80;;;23.00;97.70;;;;;;5012939;28;20565;-73
2022/06/11 00:09:17;;;;;;;1.57;0.80;;;23.00;97.80;;;;;;5015094;28;20620;-73
2022/06/11 00:11:43;;;;;;;2.50;0.97;;;23.00;97.80;;;;;;4996521;28;20561;-73
2022/06/11 00:14:09;;;;;;;2.93;0.80;;;23.00;97.80;;;;;;5012635;28;20993;-73
2022/06/11 00:16:36;;;;;;;2.30;0.83;;;22.90;98.30;;;;;;5012978;28;20225;-73
2022/06/11 00:19:03;;;;;;;2.97;0.80;;;22.90;98.00;;;;;;4995145;28;20593;-73
2022/06/11 00:21:32;;;;;;;2.17;0.83;;;22.90;98.10;;;;;;5011879;28;20635;-73
2022/06/11 00:23:58;;;;;;;2.43;0.60;;;22.90;98.20;;;;;;4995032;28;20632;-73
2022/06/11 00:26:24;;;;;;;3.30;1.00;;;22.90;98.30;;;;;;5012360;28;20933;-73
2022/06/11 00:28:50;;;;;;;3.00;0.73;;;22.90;98.30;;;;;;5012262;28;20621;-73
2022/06/11 00:31:17;;;;;;;2.73;0.90;;;22.80;98.40;;;;;;4994386;28;20181;-73
2022/06/11 00:33:43;;;;;;;2.07;0.80;;;22.80;98.50;;;;;;5012508;28;20244;-74
2022/06/11 00:36:10;;;;;;;3.20;1.10;;;22.80;98.60;;;;;;4994846;28;20933;-74
2022/06/11 00:38:38;;;;;;;2.63;0.80;;;22.80;98.70;;;;;;5011387;28;20182;-74
2022/06/11 00:41:06;;;;;;;1.77;0.70;;;22.80;98.80;;;;;;5011218;28;20660;-74
2022/06/11 00:43:32;;;;;;;1.90;0.90;;;22.80;98.90;;;;;;4983031;28;20637;-74
2022/06/11 00:46:39;;;;;;;2.67;0.80;;;22.80;99.00;;;;;;5015244;28;20617;-74
2022/06/11 00:49:28;;;;;;;2.40;0.80;;;22.70;99.20;;;;;;5012453;28;20623;-74
2022/06/11 00:52:20;;;;;;;2.00;1.40;;;22.70;99.20;;;;;;5011038;28;20566;-74
2022/06/11 00:55:05;;;;;;;2.43;1.50;;;22.70;99.30;;;;;;4977400;28;20659;-74
2022/06/11 00:57:39;;;;;;;5.60;1.13;;;22.70;99.50;;;;;;4978376;28;21013;-74
2022/06/11 01:00:15;;;;;;;1.80;0.80;;;22.70;99.50;;;;;;5011776;28;20574;-74
2022/06/11 01:02:43;;;;;;;1.70;0.70;;;22.70;99.60;;;;;;4993688;28;20616;-74
2022/06/11 01:05:12;;;;;;;3.70;0.87;;;22.60;99.60;;;;;;4978281;28;20916;-74
2022/06/11 01:08:10;;;;;;;3.57;1.10;;;22.60;99.80;;;;;;5011642;28;20575;-74
2022/06/11 01:11:11;;;;;;;2.80;0.70;;;22.60;99.90;;;;;;4993524;28;20944;-75
2022/06/11 01:13:57;;;;;;;3.80;1.00;;;22.50;99.90;;;;;;4998604;28;20619;-74
2022/06/11 01:16:45;;;;;;;5.13;0.90;;;22.50;99.90;;;;;;4993948;28;20573;-74
2022/06/11 01:19:47;;;;;;;1.37;0.70;;;22.50;99.90;;;;;;4994151;28;20631;-74
2022/06/11 01:22:47;;;;;;;1.90;0.77;;;22.50;99.90;;;;;;5011337;28;21112;-75
2022/06/11 01:25:34;;;;;;;1.97;0.87;;;22.50;99.90;;;;;;4998289;28;20565;-74
2022/06/11 01:28:00;;;;;;;2.30;0.70;;;22.40;99.90;;;;;;5011622;28;20693;-74
2022/06/11 01:30:40;;;;;;;2.67;0.87;;;22.40;99.90;;;;;;5011069;28;20659;-74
2022/06/11 01:33:15;;;;;;;2.53;0.90;;;22.40;99.90;;;;;;4993740;28;20597;-74
2022/06/11 01:35:41;;;;;;;1.90;0.90;;;22.40;99.90;;;;;;5011709;28;20565;-74
2022/06/11 01:38:37;;;;;;;4.57;0.83;;;22.40;99.90;;;;;;5011461;28;20628;-74
2022/06/11 01:41:24;;;;;;;1.80;0.80;;;22.40;99.90;;;;;;4993358;28;20179;-74
2022/06/11 01:43:57;;;;;;;3.00;0.87;;;22.30;99.90;;;;;;4994030;28;20934;-74
2022/06/11 01:46:31;;;;;;;1.80;0.70;;;22.40;99.90;;;;;;4994089;28;20609;-74
2022/06/11 01:49:20;;;;;;;1.90;0.73;;;22.30;99.90;;;;;;4977837;28;20966;-74
2022/06/11 01:52:08;;;;;;;2.43;0.80;;;22.30;99.90;;;;;;5010730;28;20965;-77
2022/06/11 01:55:12;;;;;;;2.43;0.80;;;22.30;99.90;;;;;;4995025;28;20601;-77
2022/06/11 01:57:53;;;;;;;1.70;0.80;;;22.30;99.90;;;;;;4912535;29;20582;-78
2022/06/11 02:00:20;;;;;;;2.70;0.80;;;22.30;99.90;;;;;;4983267;28;20608;-78
2022/06/11 02:02:55;;;;;;;2.87;1.00;;;22.30;99.90;;;;;;4998586;28;20616;-78
2022/06/11 02:05:50;;;;;;;3.07;1.10;;;22.30;99.90;;;;;;5014943;28;20611;-78
2022/06/11 02:08:40;;;;;;;3.20;0.90;;;22.20;99.90;;;;;;4999286;23;20667;-74
2022/06/11 02:11:30;;;;;;;5.80;1.80;;;22.20;99.90;;;;;;4972967;28;21244;-73
2022/06/11 02:14:26;;;;;;;2.60;1.10;;;22.20;99.90;;;;;;4975607;28;20611;-73
2022/06/11 02:16:59;;;;;;;4.70;0.93;;;22.20;99.90;;;;;;4959798;28;20618;-73
2022/06/11 02:19:39;;;;;;;1.97;0.80;;;22.20;99.90;;;;;;4975834;28;21002;-73
2022/06/11 02:22:16;;;;;;;2.17;0.70;;;22.20;99.90;;;;;;4957991;28;21077;-73
2022/06/11 02:24:49;;;;;;;1.43;0.80;;;22.20;99.90;;;;;;4976958;28;20637;-73
2022/06/11 02:27:22;;;;;;;2.67;1.00;;;22.20;99.90;;;;;;4975673;28;20659;-73
2022/06/11 02:29:48;;;;;;;3.13;0.90;;;22.20;99.90;;;;;;4957865;28;20657;-73
2022/06/11 02:32:17;;;;;;;3.27;1.10;;;22.20;99.90;;;;;;4974329;28;20567;-73
2022/06/11 02:34:50;;;;;;;1.80;0.77;;;22.20;99.90;;;;;;4975321;28;21035;-73
2022/06/11 02:37:24;;;;;;;2.03;0.97;;;22.20;99.90;;;;;;4974466;28;21032;-73
2022/06/11 02:39:55;;;;;;;2.20;0.80;;;22.20;99.90;;;;;;4974949;28;20583;-73
2022/06/11 02:42:23;;;;;;;2.63;1.10;;;22.20;99.90;;;;;;4974523;28;20591;-73
2022/06/11 02:44:50;;;;;;;6.27;1.10;;;22.20;99.90;;;;;;4974417;28;20592;-73
2022/06/11 02:47:18;;;;;;;2.40;1.10;;;22.20;99.90;;;;;;4974993;28;20626;-73
2022/06/11 02:49:45;;;;;;;1.63;0.87;;;22.20;99.90;;;;;;4974707;28;20626;-73
2022/06/11 02:52:21;;;;;;;3.60;0.90;;;22.20;99.90;;;;;;4973948;28;20963;-73
2022/06/11 02:54:49;;;;;;;2.40;1.20;;;22.10;99.90;;;;;;4974529;28;20629;-74
2022/06/11 02:57:20;;;;;;;3.10;1.13;;;22.10;99.90;;;;;;4957752;28;20667;-73
2022/06/11 02:59:47;;;;;;;2.20;0.73;;;22.20;99.90;;;;;;4974021;28;20619;-73
2022/06/11 03:02:14;;;;;;;1.77;0.90;;;22.10;99.90;;;;;;4974755;28;20930;-73
2022/06/11 03:04:40;;;;;;;4.73;0.90;;;22.10;99.90;;;;;;4957655;28;20927;-73
2022/06/11 03:07:08;;;;;;;2.70;0.97;;;22.10;99.90;;;;;;4957535;28;20614;-73
2022/06/11 03:09:36;;;;;;;1.90;1.47;;;22.10;99.90;;;;;;4974603;28;20658;-73
2022/06/11 03:12:03;;;;;;;2.97;1.20;;;22.10;99.90;;;;;;4974425;28;20572;-73
2022/06/11 03:14:29;;;;;;;1.57;0.90;;;22.10;99.90;;;;;;4974641;28;20622;-73
2022/06/11 03:16:55;;;;;;;2.63;1.10;;;22.10;99.90;;;;;;4957514;28;20567;-73
2022/06/11 03:19:22;;;;;;;3.70;1.17;;;22.10;99.90;;;;;;4956989;28;21202;-73
2022/06/11 03:21:50;;;;;;;2.73;0.80;;;22.10;99.90;;;;;;4973865;28;20662;-73
2022/06/11 03:24:17;;;;;;;2.20;1.00;;;22.00;99.90;;;;;;4974684;28;20575;-73
2022/06/11 03:26:44;;;;;;;2.80;1.20;;;22.00;99.90;;;;;;4974519;28;20615;-73
2022/06/11 03:29:10;;;;;;;2.30;0.90;;;22.00;99.90;;;;;;4974038;28;20634;-73
2022/06/11 03:31:36;;;;;;;3.73;0.93;;;22.00;99.90;;;;;;4972896;28;21462;-73
2022/06/11 03:34:03;;;;;;;2.87;1.10;;;22.00;99.90;;;;;;4974150;28;20571;-73
2022/06/11 03:36:29;;;;;;;5.93;0.90;;;22.00;99.90;;;;;;4974425;28;20611;-73
2022/06/11 03:38:55;;;;;;;2.23;0.90;;;22.00;99.90;;;;;;4975555;28;20619;-73
2022/06/11 03:41:21;;;;;;;2.40;0.90;;;22.00;99.90;;;;;;4973497;28;21135;-73
2022/06/11 03:43:49;;;;;;;3.60;1.07;;;22.00;99.90;;;;;;4956737;28;20270;-74
2022/06/11 03:46:16;;;;;;;2.43;0.97;;;22.00;99.90;;;;;;4974175;28;20687;-73
2022/06/11 03:48:42;;;;;;;3.37;1.27;;;22.00;99.90;;;;;;4973735;28;20638;-74
2022/06/11 03:51:10;;;;;;;2.27;1.13;;;22.00;99.90;;;;;;4973393;28;20689;-73
2022/06/11 03:53:36;;;;;;;2.93;0.90;;;22.00;99.90;;;;;;4974129;28;20923;-74
2022/06/11 03:56:05;;;;;;;1.70;0.80;;;22.00;99.90;;;;;;4974176;28;20716;-73
2022/06/11 03:58:31;;;;;;;3.60;1.00;;;22.00;99.90;;;;;;4973934;28;20613;-73
2022/06/11 04:01:16;;;;;;;1.90;0.80;;;22.00;99.90;;;;;;4973091;28;20567;-73
2022/06/11 04:03:55;;;;;;;4.20;1.20;;;22.00;99.90;;;;;;4973735;28;20571;-73
2022/06/11 04:06:30;;;;;;;2.20;1.10;;;22.00;99.90;;;;;;4973883;28;21376;-73
2022/06/11 04:08:56;;;;;;;2.60;1.00;;;22.00;99.90;;;;;;4973397;28;20638;-74
2022/06/11 04:11:23;;;;;;;2.00;1.00;;;22.00;99.90;;;;;;4972980;28;20567;-73
2022/06/11 04:13:50;;;;;;;3.57;0.93;;;22.00;99.90;;;;;;4973474;28;20571;-74
2022/06/11 04:16:24;;;;;;;3.53;1.23;;;22.00;99.90;;;;;;4957502;28;20582;-74
2022/06/11 04:18:51;;;;;;;2.70;1.00;;;22.00;99.90;;;;;;4973154;28;20630;-73
2022/06/11 04:21:19;;;;;;;3.00;1.23;;;22.10;99.90;;;;;;4972602;28;20578;-73
2022/06/11 04:23:49;;;;;;;2.63;1.07;;;22.10;99.90;;;;;;4973553;28;20578;-73
2022/06/11 04:26:18;;;;;;;2.57;0.93;;;22.10;99.90;;;;;;4972921;28;20583;-73
2022/06/11 04:28:44;;;;;;;2.50;1.10;;;22.10;99.90;;;;;;4955941;28;20658;-73
2022/06/11 04:31:11;;;;;;;4.70;1.20;;;22.10;99.90;;;;;;4972431;28;20621;-72
2022/06/11 04:33:37;;;;;;;2.33;1.00;;;22.10;99.90;;;;;;4973047;28;20176;-73
2022/06/11 04:36:05;;;;;;;2.40;0.90;;;22.20;99.90;;;;;;4973535;28;20912;-74
2022/06/11 04:38:31;;;;;;;2.57;1.07;;;22.20;99.90;;;;;;4973414;28;20963;-73
2022/06/11 04:40:57;;;;;;;3.90;1.37;;;22.30;99.90;;;;;;4972403;28;20575;-73
2022/06/11 04:43:23;;;;;;;2.57;1.00;;;22.30;99.90;;;;;;4955867;28;20571;-73
2022/06/11 04:45:49;;;;;;;2.70;1.00;;;22.30;99.90;;;;;;4973069;28;20524;-73
2022/06/11 04:48:15;;;;;;;2.70;0.90;;;22.40;99.90;;;;;;4972841;28;20641;-73
2022/06/11 04:50:41;;;;;;;2.33;1.00;;;22.40;99.90;;;;;;4972421;28;20962;-73
2022/06/11 04:53:07;;;;;;;4.87;1.80;;;22.50;99.90;;;;;;4973309;28;20584;-78
2022/06/11 04:55:34;;;;;;;2.33;1.10;;;22.60;99.90;;;;;;4956007;28;20567;-78
2022/06/11 04:58:00;;;;;;;1.90;0.90;;;22.70;99.90;;;;;;4955724;28;20191;-78
2022/06/11 05:00:28;;;;;;;2.30;0.83;;;22.70;99.90;;;;;;4938869;28;20885;-79
2022/06/11 05:02:54;;;;;;;1.80;0.80;;;22.80;99.90;;;;;;4972697;28;20571;-78
2022/06/11 05:05:20;;;;;;;4.73;1.07;;;22.90;99.90;;;;;;4955624;28;20926;-78
2022/06/11 05:07:47;;;;;;;2.70;1.17;;;23.00;99.90;;;;;;4972659;28;20701;-78
2022/06/11 05:10:16;;;;;;;2.37;0.80;;;23.10;99.90;;;;;;4972596;28;20661;-78
2022/06/11 05:12:42;;;;;;;2.07;1.10;;;23.10;99.90;;;;;;4955065;28;20662;-79
2022/06/11 05:15:09;;;;;;;4.27;1.00;;;23.20;99.90;;;;;;4972633;28;20603;-77
2022/06/11 05:17:35;;;;;;;2.47;0.80;;;23.20;99.90;;;;;;4972733;28;21151;-73
2022/06/11 05:20:01;;;;;;;1.70;0.90;;;23.30;99.90;;;;;;4972162;28;20582;-74
2022/06/11 05:22:27;;;;;;;3.40;1.57;;;23.40;99.90;;;;;;4971860;28;20591;-74
2022/06/11 05:24:53;;;;;;;3.10;1.50;;;23.40;99.90;;;;;;4971386;28;20603;-74
2022/06/11 05:27:23;;;;;;;3.17;0.90;;;23.50;99.90;;;;;;4972291;28;20682;-74
2022/06/11 05:30:00;;;;;;;3.30;1.17;;;23.60;99.90;;;;;;4973974;28;20627;-74
2022/06/11 05:32:29;;;;;;;2.60;0.90;;;23.60;99.90;;;;;;4939076;28;20978;-74
2022/06/11 05:34:57;;;;;;;2.10;0.80;;;23.60;99.90;;;;;;4955027;28;21094;-74
2022/06/11 05:37:24;;;;;;;2.47;0.93;;;23.70;99.90;;;;;;4972723;28;20595;-74
2022/06/11 05:39:50;;;;;;;3.97;1.00;;;23.70;99.90;;;;;;4958981;28;20571;-74
2022/06/11 05:42:18;;;;;;;3.43;0.90;;;23.70;99.90;;;;;;4976142;28;20978;-74
2022/06/11 05:44:44;;;;;;;1.83;1.00;;;23.80;99.90;;;;;;4943038;28;21185;-74
2022/06/11 05:47:14;;;;;;;2.60;1.00;;;23.80;99.90;;;;;;4976395;28;20563;-74
2022/06/11 05:49:43;;;;;;;4.07;0.90;;;23.80;99.90;;;;;;4975870;28;20347;-74
2022/06/11 05:52:17;;;;;;;4.57;1.17;;;23.90;99.90;;;;;;4958595;28;20587;-74
2022/06/11 05:54:43;;;;;;;6.33;1.67;;;23.90;99.90;;;;;;4958755;28;20610;-74
2022/06/11 05:57:13;;;;;;;3.90;1.00;;;23.90;99.90;;;;;;4976049;28;20558;-74
2022/06/11 05:59:44;;;;;;;3.23;0.93;;;23.90;99.90;;;;;;4975466;28;20607;-74
2022/06/11 06:02:12;;;;;;;2.00;1.00;;;24.00;99.90;;;;;;4958280;28;20626;-74
2022/06/11 06:04:38;;;;;;;2.93;1.00;;;24.10;99.90;;;;;;4975961;28;20939;-74
2022/06/11 06:07:08;;;;;;;2.37;0.90;;;24.20;99.90;;;;;;4977913;28;20571;-74
2022/06/11 06:09:35;;;;;;;3.43;1.63;;;24.20;99.90;;;;;;4975568;28;21186;-74
2022/06/11 06:12:01;;;;;;;4.27;0.80;;;24.40;99.90;;;;;;4975275;28;20567;-74
2022/06/11 06:14:26;;;;;;;2.80;1.00;;;24.50;99.90;;;;;;4975554;28;20901;-74
2022/06/11 06:16:52;;;;;;;2.27;0.90;;;24.70;99.90;;;;;;4975745;28;20602;-74
2022/06/11 06:19:18;;;;;;;2.13;0.90;;;24.70;99.90;;;;;;4958330;28;20195;-74
2022/06/11 06:21:44;;;;;;;2.03;0.90;;;24.80;99.90;;;;;;4974776;28;20519;-74
2022/06/11 06:24:10;;;;;;;2.50;0.80;;;24.80;99.90;;;;;;4975747;28;20563;-74
2022/06/11 06:26:36;;;;;;;1.50;0.80;;;24.90;99.90;;;;;;4958519;28;21042;-74
2022/06/11 06:29:04;;;;;;;3.40;0.93;;;25.10;99.90;;;;;;4975350;28;20666;-74
2022/06/11 06:31:30;;;;;;;3.10;1.00;;;25.30;99.90;;;;;;4974715;28;20567;-74
2022/06/11 06:33:58;;;;;;;2.60;1.07;;;25.50;99.90;;;;;;4975584;28;20563;-74
2022/06/11 06:36:26;;;;;;;2.47;1.00;;;25.80;99.90;;;;;;4975649;28;20595;-74
2022/06/11 06:38:52;;;;;;;3.87;0.90;;;26.20;99.90;;;;;;4958302;28;20606;-74
2022/06/11 06:41:18;;;;;;;2.63;1.00;;;26.40;99.90;;;;;;4974533;28;20594;-74
2022/06/11 06:43:46;;;;;;;3.33;1.10;;;26.70;99.90;;;;;;4975025;28;20591;-74
2022/06/11 06:46:12;;;;;;;3.47;1.00;;;27.00;99.90;;;;;;4974905;28;20586;-73
2022/06/11 06:48:38;;;;;;;2.70;0.90;;;27.10;99.90;;;;;;4957497;28;20639;-74
2022/06/11 06:51:05;;;;;;;3.40;1.60;;;27.30;99.90;;;;;;4973743;28;20578;-74
2022/06/11 06:53:31;;;;;;;3.70;0.93;;;27.40;99.90;;;;;;4975202;28;20251;-74
2022/06/11 06:55:57;;;;;;;2.60;1.07;;;27.50;99.90;;;;;;4974484;28;20595;-74
2022/06/11 06:58:24;;;;;;;2.07;0.93;;;27.70;99.90;;;;;;4974588;28;21017;-74
2022/06/11 07:00:50;;;;;;;4.70;1.30;;;27.90;99.90;;;;;;4973830;28;20614;-74
2022/06/11 07:03:17;;;;;;;1.50;0.70;;;28.10;99.90;;;;;;4957654;28;20591;-74
2022/06/11 07:05:43;;;;;;;3.13;0.90;;;28.20;99.90;;;;;;4974354;28;20691;-73
2022/06/11 07:08:11;;;;;;;6.23;1.33;;;28.40;99.90;;;;;;4974328;28;20638;-74
2022/06/11 07:10:37;;;;;;;2.13;0.70;;;28.60;99.90;;;;;;4973994;28;20623;-74
2022/06/11 07:13:02;;;;;;;2.87;0.90;;;28.80;99.90;;;;;;4973745;28;20587;-73
2022/06/11 07:15:29;;;;;;;2.87;0.77;;;29.20;99.90;;;;;;4974755;28;20575;-74
2022/06/11 07:18:18;;;;;;;1.50;0.67;;;29.60;99.90;;;;;;4974987;28;20192;-74
2022/06/11 07:20:46;;;;;;;2.40;0.70;;;30.00;99.90;;;;;;4973575;28;20579;-74
2022/06/11 07:23:24;;;;;;;2.77;0.93;;;30.30;99.90;;;;;;4974785;28;21141;-74
2022/06/11 07:25:53;;;;;;;2.40;0.80;;;30.50;99.00;;;;;;4974515;28;20563;-74
2022/06/11 07:28:25;;;;;;;1.50;0.60;;;30.80;98.20;;;;;;4957210;28;20668;-74
2022/06/11 07:30:51;;;;;;;2.20;0.67;;;31.00;97.50;;;;;;4973799;28;20556;-74
2022/06/11 07:33:21;;;;;;;3.03;0.70;;;31.20;97.00;;;;;;4974408;28;21170;-74
2022/06/11 07:35:48;;;;;;;3.33;0.77;;;31.30;96.30;;;;;;4974468;28;20973;-74
2022/06/11 07:38:14;;;;;;;1.40;0.70;;;31.40;95.80;;;;;;4974419;28;20947;-73
2022/06/11 07:40:41;;;;;;;2.30;0.70;;;31.40;95.10;;;;;;4973157;28;20593;-73
2022/06/11 07:43:07;;;;;;;4.13;0.90;;;31.40;94.80;;;;;;4974314;28;20567;-73
2022/06/11 07:45:38;;;;;;;2.07;0.70;;;31.40;94.90;;;;;;4974449;28;20943;-73
2022/06/11 07:48:04;;;;;;;1.57;0.70;;;31.60;94.50;;;;;;4974161;28;20602;-73
2022/06/11 07:50:37;;;;;;;2.23;0.70;;;31.60;93.80;;;;;;4973419;28;20971;-73
2022/06/11 07:53:04;;;;;;;1.53;0.70;;;31.60;93.00;;;;;;4974173;28;20578;-73
2022/06/11 07:55:32;;;;;;;1.80;0.70;;;31.70;92.80;;;;;;4973818;28;20569;-73
2022/06/11 07:57:58;;;;;;;2.27;0.70;;;31.70;92.80;;;;;;4973960;28;20599;-74
2022/06/11 08:00:28;;;;;;;2.07;0.90;;;31.80;92.30;;;;;;4973419;28;20569;-74
2022/06/11 08:02:53;;;;;;;1.73;0.67;;;31.80;92.00;;;;;;4973250;28;20571;-73
2022/06/11 08:05:20;;;;;;;1.57;0.77;;;31.70;91.50;;;;;;4974223;28;20615;-73
2022/06/11 08:07:46;;;;;;;2.50;0.70;;;31.60;91.00;;;;;;4973563;28;20193;-74
2022/06/11 08:10:13;;;;;;;2.17;0.87;;;31.40;91.10;;;;;;4973328;28;20650;-74
2022/06/11 08:12:40;;;;;;;2.97;0.90;;;31.40;91.10;;;;;;4973643;28;20615;-74
2022/06/11 08:15:07;;;;;;;2.23;0.77;;;31.40;90.90;;;;;;4974302;28;20567;-76
2022/06/11 08:17:34;;;;;;;2.60;1.13;;;31.40;90.80;;;;;;4973766;28;20560;-76
2022/06/11 08:20:03;;;;;;;2.67;0.80;;;31.40;90.50;;;;;;4956363;28;21135;-76
2022/06/11 08:22:30;;;;;;;2.40;0.80;;;31.50;90.70;;;;;;4973096;28;20745;-76
2022/06/11 08:24:57;;;;;;;10.57;0.97;;;31.60;90.30;;;;;;4973284;28;20595;-76
2022/06/11 08:27:25;;;;;;;3.00;0.60;;;31.70;90.10;;;;;;4974354;28;20573;-77
2022/06/11 08:29:51;;;;;;;1.80;0.70;;;31.80;90.00;;;;;;4956966;28;20680;-76
2022/06/11 08:32:16;;;;;;;2.03;0.80;;;32.00;89.10;;;;;;4973186;28;20666;-75
2022/06/11 08:34:46;;;;;;;1.80;0.60;;;32.30;89.40;;;;;;4974724;28;20932;-75
2022/06/11 08:37:13;;;;;;;1.77;0.70;;;32.70;88.60;;;;;;4973317;28;20176;-75
2022/06/11 08:39:40;;;;;;;1.93;0.80;;;32.80;87.20;;;;;;4972750;28;20971;-76
2022/06/11 08:42:09;;;;;;;2.43;0.80;;;32.90;85.70;;;;;;4972472;28;21138;-75
2022/06/11 08:44:37;;;;;;;3.47;0.73;;;33.00;85.00;;;;;;4973290;28;20585;-75
2022/06/11 08:47:12;;;;;;;2.53;0.90;;;33.20;84.30;;;;;;4973157;28;20575;-75
2022/06/11 08:49:46;;;;;;;2.40;0.80;;;33.20;83.00;;;;;;4972485;28;20640;-74
2022/06/11 08:52:23;;;;;;;3.90;0.83;;;33.20;82.00;;;;;;4955194;28;20671;-75
2022/06/11 08:54:50;;;;;;;1.83;0.80;;;33.30;83.50;;;;;;4955802;28;20602;-75
2022/06/11 08:57:22;;;;;;;2.33;1.10;;;33.90;85.10;;;;;;4955805;28;20577;-75
2022/06/11 08:59:54;;;;;;;1.60;0.70;;;34.70;85.60;;;;;;4972596;28;21174;-75
2022/06/11 09:02:38;;;;;;;1.70;0.60;;;35.60;84.60;;;;;;4955104;28;20614;-76
2022/06/11 09:05:16;;;;;;;1.70;0.70;;;36.00;79.60;;;;;;4973085;28;20587;-75
2022/06/11 09:08:13;;;;;;;2.90;0.97;;;36.30;77.00;;;;;;4938971;28;20578;-75
2022/06/11 09:10:57;;;;;;;2.20;0.70;;;36.30;72.90;;;;;;4974154;28;20723;-75
2022/06/11 09:13:38;;;;;;;1.73;0.70;;;36.00;72.30;;;;;;4972709;28;21015;-75
2022/06/11 09:16:16;;;;;;;3.07;1.00;;;35.60;70.10;;;;;;4972736;28;20647;-75
2022/06/11 09:19:19;;;;;;;1.47;0.60;;;35.10;67.90;;;;;;4955406;28;21206;-75
2022/06/11 09:22:23;;;;;;;2.57;0.60;;;34.40;68.30;;;;;;4938492;28;20635;-75
2022/06/11 09:25:07;;;;;;;1.90;0.70;;;33.80;68.00;;;;;;4972913;28;21130;-75
2022/06/11 09:27:36;;;;;;;2.00;0.90;;;33.20;69.30;;;;;;4972255;28;20563;-75
2022/06/11 09:30:25;;;;;;;3.67;1.00;;;33.00;71.30;;;;;;4965846;28;20648;-75
2022/06/11 09:32:57;;;;;;;3.07;1.00;;;33.00;73.10;;;;;;4972470;28;21142;-75
2022/06/11 09:35:47;;;;;;;2.37;1.00;;;33.20;74.80;;;;;;4972566;28;20606;-75
2022/06/11 09:38:25;;;;;;;1.50;0.70;;;33.60;75.80;;;;;;4972305;28;20601;-74
2022/06/11 09:41:17;;;;;;;1.90;0.93;;;34.20;76.90;;;;;;4971777;28;20578;-75
2022/06/11 09:44:40;;;;;;;4.30;1.00;;;34.60;74.40;;;;;;4938668;28;20593;-75
2022/06/11 09:47:18;;;;;;;1.90;0.77;;;34.80;71.40;;;;;;4877218;29;20595;-75
2022/06/11 09:50:04;;;;;;;2.10;0.90;;;34.90;71.80;;;;;;4876960;29;21124;-75
2022/06/11 09:52:53;;;;;;;3.00;0.90;;;35.30;72.40;;;;;;4942509;28;20590;-75
2022/06/11 09:55:31;;;;;;;2.33;1.10;;;35.80;73.50;;;;;;4974001;28;20575;-76
2022/06/11 09:58:11;;;;;;;2.50;0.80;;;36.40;72.50;;;;;;4974189;28;21029;-75
2022/06/11 10:01:05;;;;;;;1.90;0.73;;;37.00;71.50;;;;;;4973437;28;20571;-76
2022/06/11 10:03:37;;;;;;;1.40;0.60;;;37.70;70.00;;;;;;4964187;28;20955;-76
2022/06/11 10:06:10;;;;;;;3.83;2.17;;;38.10;65.20;;;;;;4973533;28;20938;-76
2022/06/11 10:08:54;;;;;;;1.87;0.80;;;38.40;65.30;;;;;;4955563;28;21236;-75
2022/06/11 10:11:43;;;;;;;1.90;0.70;;;38.70;63.20;;;;;;4972682;28;20574;-76
2022/06/11 10:14:29;;;;;;;1.97;0.80;;;39.00;62.30;;;;;;4955683;28;20948;-75
2022/06/11 10:17:16;;;;;;;2.63;0.93;;;39.30;60.20;;;;;;4954860;28;20928;-76
2022/06/11 10:19:50;;;;;;;3.03;0.90;;;39.70;60.10;;;;;;4971440;28;20656;-76
2022/06/11 10:22:42;;;;;;;3.10;0.97;;;40.00;59.30;;;;;;4971582;28;20626;-74
2022/06/11 10:25:34;;;;;;;2.57;1.30;;;40.30;58.00;;;;;;4957060;28;20578;-75
2022/06/11 10:28:12;;;;;;;6.10;1.63;;;40.60;57.80;;;;;;4975573;28;20590;-75
2022/06/11 10:31:37;;;;;;;2.00;0.80;;;40.80;56.80;;;;;;4981912;28;21318;-76
2022/06/11 10:34:19;;;;;;;1.90;0.77;;;41.20;56.20;;;;;;4975362;28;20702;-76
2022/06/11 10:36:45;;;;;;;1.50;0.80;;;41.40;54.50;;;;;;4957837;28;20563;-76
2022/06/11 10:39:23;;;;;;;2.50;0.90;;;41.40;54.00;;;;;;4975582;28;20609;-76
2022/06/11 10:42:05;;;;;;;1.67;0.83;;;41.60;52.90;;;;;;4974776;28;20565;-76
2022/06/11 10:44:38;;;;;;;2.30;0.90;;;41.80;53.50;;;;;;4975666;28;20954;-75
2022/06/11 10:47:16;;;;;;;1.40;0.80;;;41.70;52.00;;;;;;4975276;28;21118;-76
2022/06/11 10:49:50;;;;;;;2.07;0.70;;;41.30;50.40;;;;;;4957344;28;20626;-75
2022/06/11 10:52:36;;;;;;;1.53;0.60;;;40.80;50.80;;;;;;4974642;28;20571;-75
2022/06/11 10:55:06;;;;;;;1.70;0.80;;;40.60;51.80;;;;;;4975150;28;20650;-75
2022/06/11 10:57:33;;;;;;;2.13;0.83;;;40.50;51.70;;;;;;4975075;28;20714;-75
2022/06/11 11:00:19;;;;;;;1.97;0.90;;;40.40;51.90;;;;;;4974658;28;21122;-76
2022/06/11 11:03:03;;;;;;;3.00;0.70;;;40.40;51.50;;;;;;4956855;28;20951;-75
2022/06/11 11:05:55;;;;;;;3.10;1.00;;;40.30;51.40;;;;;;4972453;28;20574;-76
2022/06/11 11:08:21;;;;;;;2.47;0.73;;;40.00;50.80;;;;;;4974857;28;20618;-76
2022/06/11 11:10:50;;;;;;;3.67;0.80;;;39.70;51.30;;;;;;4974148;28;21196;-76
2022/06/11 11:13:35;;;;;;;1.77;0.70;;;39.50;51.20;;;;;;4974962;28;20164;-75
2022/06/11 11:16:30;;;;;;;2.10;0.90;;;39.40;51.20;;;;;;4957104;28;21142;-76
2022/06/11 11:19:05;;;;;;;1.73;1.00;;;39.30;50.90;;;;;;4972399;28;20626;-76
2022/06/11 11:21:53;;;;;;;1.60;0.70;;;39.10;50.90;;;;;;4956698;28;20997;-76
2022/06/11 11:24:22;;;;;;;2.40;0.80;;;38.80;50.50;;;;;;4974618;28;20586;-77
2022/06/11 11:26:51;;;;;;;2.93;0.80;;;38.40;50.10;;;;;;4957495;28;20571;-75
2022/06/11 11:29:39;;;;;;;3.20;1.33;;;37.90;49.90;;;;;;4957339;28;20662;-74
2022/06/11 11:32:26;;;;;;;1.30;0.67;;;37.40;50.00;;;;;;4956684;28;20899;-74
2022/06/11 11:34:55;;;;;;;1.83;0.90;;;36.90;49.90;;;;;;4957304;28;20571;-74
2022/06/11 11:37:31;;;;;;;1.70;0.80;;;36.40;50.30;;;;;;4974415;28;21169;-74
2022/06/11 11:40:00;;;;;;;2.90;1.00;;;36.20;51.70;;;;;;4958281;28;20302;-74
2022/06/11 11:42:31;;;;;;;2.00;0.90;;;35.90;51.80;;;;;;4973888;28;20758;-74
2022/06/11 11:44:58;;;;;;;1.80;1.00;;;35.80;52.20;;;;;;4974628;28;20563;-74
2022/06/11 11:47:35;;;;;;;2.93;0.83;;;35.70;52.40;;;;;;4956656;28;20666;-74
2022/06/11 11:50:17;;;;;;;2.20;0.90;;;35.60;52.40;;;;;;4956574;28;20638;-74
2022/06/11 11:53:35;;;;;;;3.03;2.00;;;35.40;52.70;;;;;;4973757;28;20588;-74
2022/06/11 11:56:05;;;;;;;1.90;1.50;;;35.20;52.30;;;;;;4969289;28;20649;-74
2022/06/11 11:58:40;;;;;;;2.13;1.03;;;34.90;52.10;;;;;;4974332;28;21236;-74
2022/06/11 12:01:15;;;;;;;1.87;0.70;;;34.60;52.10;;;;;;4973017;28;20562;-74
2022/06/11 12:04:01;;;;;;;1.87;0.83;;;34.30;52.40;;;;;;4973998;28;20577;-74
2022/06/11 12:06:30;;;;;;;2.80;0.90;;;34.10;53.70;;;;;;4973978;28;20552;-75
2022/06/11 12:08:57;;;;;;;2.53;1.00;;;34.10;54.20;;;;;;4973677;28;21162;-75
2022/06/11 12:11:26;;;;;;;2.23;1.53;;;34.20;54.70;;;;;;4924053;28;20589;-74
2022/06/11 12:14:14;;;;;;;2.63;0.90;;;34.20;54.70;;;;;;4956961;28;21154;-75
2022/06/11 12:16:49;;;;;;;3.83;1.40;;;34.20;54.40;;;;;;4957701;28;20590;-75
2022/06/11 12:19:21;;;;;;;1.70;0.83;;;34.10;53.90;;;;;;4973827;28;20635;-74
2022/06/11 12:21:54;;;;;;;3.93;0.90;;;34.00;54.70;;;;;;4955765;28;20585;-75
2022/06/11 12:24:32;;;;;;;2.37;0.80;;;33.90;54.90;;;;;;4973512;28;20679;-74
2022/06/11 12:27:03;;;;;;;1.70;1.00;;;33.90;55.20;;;;;;4973449;28;20578;-75
2022/06/11 12:29:37;;;;;;;1.90;1.07;;;33.90;55.40;;;;;;4973351;28;20644;-75
2022/06/11 12:32:16;;;;;;;1.83;1.00;;;33.90;55.60;;;;;;4955546;28;20593;-75
2022/06/11 12:34:42;;;;;;;2.03;1.20;;;33.80;54.90;;;;;;4955908;28;20626;-74
2022/06/11 12:37:17;;;;;;;2.17;1.40;;;33.80;55.40;;;;;;4973504;28;20643;-75
2022/06/11 12:39:51;;;;;;;2.40;1.70;;;33.70;55.20;;;;;;4973008;28;20224;-75
2022/06/11 12:42:23;;;;;;;2.20;2.00;;;33.60;55.40;;;;;;4955710;28;20576;-74
2022/06/11 12:45:19;;;;;;;2.30;1.40;;;33.50;55.40;;;;;;4973031;28;20670;-74
2022/06/11 12:47:48;;;;;;;3.10;2.07;;;33.40;55.30;;;;;;4972616;28;20601;-75
2022/06/11 12:50:38;;;;;;;2.60;2.10;;;33.20;55.20;;;;;;4955260;28;20634;-75
2022/06/11 12:53:11;;;;;;;2.03;1.53;;;33.00;55.30;;;;;;4973723;28;20579;-75
2022/06/11 12:55:48;;;;;;;2.03;1.40;;;32.80;54.80;;;;;;4973019;28;20977;-75
2022/06/11 12:58:31;;;;;;;5.20;2.53;;;32.50;55.30;;;;;;4955624;28;20598;-74
2022/06/11 13:01:21;;;;;;;3.23;2.07;;;32.30;55.70;;;;;;4972094;28;20629;-75
2022/06/11 13:04:25;;;;;;;3.53;1.50;;;32.10;56.00;;;;;;4972647;28;20562;-74
2022/06/11 13:07:03;;;;;;;2.00;1.10;;;31.90;56.00;;;;;;4875668;29;20586;-75
2022/06/11 13:10:08;;;;;;;3.07;1.70;;;31.70;56.40;;;;;;4962364;28;20720;-76
2022/06/11 13:12:56;;;;;;;3.43;2.13;;;31.60;56.50;;;;;;4972388;28;20620;-75
2022/06/11 13:15:31;;;;;;;2.57;1.30;;;31.40;56.80;;;;;;4955357;28;20575;-74
2022/06/11 13:18:31;;;;;;;3.10;1.73;;;31.30;56.90;;;;;;4972709;28;20599;-75
2022/06/11 13:21:40;;;;;;;2.60;1.20;;;31.30;57.30;;;;;;4954914;28;20666;-74
2022/06/11 13:24:38;;;;;;;4.10;1.40;;;31.30;57.60;;;;;;4934933;28;20583;-74